createdAt,value
2023-02-03T00:00:05.203Z,8.93
2023-02-03T00:02:32.567Z,10.15
2023-02-03T00:04:59.803Z,7.78
2023-02-03T00:07:27.044Z,6.75
2023-02-03T00:09:56.142Z,10.60
2023-02-03T00:12:23.414Z,10.18
2023-02-03T00:14:50.644Z,7.70
2023-02-03T00:17:17.956Z,7.63
2023-02-03T00:19:45.190Z,9.52
2023-02-03T00:22:14.339Z,5.47
2023-02-03T00:24:41.642Z,8.07
2023-02-03T00:27:10.217Z,8.18
2023-02-03T00:29:37.431Z,9.43
2023-02-03T00:32:05.048Z,3.60
2023-02-03T00:34:32.733Z,4.22
2023-02-03T00:37:00.505Z,5.40
2023-02-03T00:39:27.780Z,7.72
2023-02-03T00:41:55.040Z,5.78
2023-02-03T00:44:23.594Z,6.50
2023-02-03T00:46:50.904Z,9.98
2023-02-03T00:49:18.132Z,5.20
2023-02-03T00:51:45.365Z,5.80
2023-02-03T00:54:13.575Z,7.47
2023-02-03T00:56:40.909Z,5.00
2023-02-03T00:59:08.164Z,5.78
2023-02-03T01:01:37.172Z,8.05
2023-02-03T01:04:04.828Z,9.50
2023-02-03T01:06:32.084Z,8.80
2023-02-03T01:08:59.582Z,6.30
2023-02-03T01:11:29.122Z,3.38
2023-02-03T01:14:01.564Z,9.00
2023-02-03T01:16:29.733Z,5.95
2023-02-03T01:18:58.364Z,7.97
2023-02-03T01:21:26.844Z,7.65
2023-02-03T01:23:54.605Z,7.53
2023-02-03T01:26:22.865Z,6.68
2023-02-03T01:28:54.307Z,8.02
2023-02-03T01:31:22.838Z,4.05
2023-02-03T01:33:50.357Z,11.60
2023-02-03T01:36:19.351Z,9.10
2023-02-03T01:38:46.622Z,9.95
2023-02-03T01:41:15.375Z,11.13
2023-02-03T01:43:43.586Z,4.63
2023-02-03T01:46:19.495Z,9.77
2023-02-03T01:48:46.772Z,6.90
2023-02-03T01:51:14.018Z,9.07
2023-02-03T01:53:42.833Z,5.85
2023-02-03T01:56:10.620Z,6.50
2023-02-03T01:58:39.062Z,7.63
2023-02-03T02:01:06.614Z,7.70
2023-02-03T02:03:37.373Z,7.45
2023-02-03T02:06:05.792Z,8.27
2023-02-03T02:08:33.392Z,9.70
2023-02-03T02:11:02.449Z,7.97
2023-02-03T02:13:31.304Z,8.45
2023-02-03T02:16:00.887Z,11.52
2023-02-03T02:18:33.224Z,6.45
2023-02-03T02:24:02.346Z,9.07
2023-02-03T02:26:48.669Z,11.77
2023-02-03T02:29:31.420Z,11.80
2023-02-03T02:32:05.250Z,7.70
2023-02-03T02:34:38.790Z,7.35
2023-02-03T02:37:08.138Z,4.93
2023-02-03T02:39:39.536Z,6.57
2023-02-03T02:42:08.816Z,10.35
2023-02-03T02:44:38.987Z,5.15
2023-02-03T02:47:10.557Z,5.45
2023-02-03T02:49:41.626Z,12.70
2023-02-03T02:52:09.590Z,9.77
2023-02-03T02:54:38.503Z,7.55
2023-02-03T02:57:07.196Z,8.32
2023-02-03T02:59:34.415Z,7.70
2023-02-03T03:02:02.129Z,4.68
2023-02-03T03:04:32.015Z,9.38
2023-02-03T03:07:00.227Z,7.35
2023-02-03T03:09:29.907Z,6.20
2023-02-03T03:12:00.316Z,7.78
2023-02-03T03:14:29.077Z,7.10
2023-02-03T03:17:00.599Z,9.00
2023-02-03T03:19:30.403Z,9.02
2023-02-03T03:22:01.352Z,4.80
2023-02-03T03:24:31.954Z,5.10
2023-02-03T03:27:02.742Z,6.97
2023-02-03T03:29:31.995Z,7.30
2023-02-03T03:31:59.359Z,6.70
2023-02-03T03:34:26.874Z,6.72
2023-02-03T03:36:57.410Z,8.70
2023-02-03T03:39:29.160Z,6.88
2023-02-03T03:41:58.558Z,6.75
2023-02-03T03:44:28.292Z,8.23
2023-02-03T03:47:00.240Z,11.50
2023-02-03T03:49:28.791Z,5.45
2023-02-03T03:51:57.589Z,6.78
2023-02-03T03:54:25.619Z,6.93
2023-02-03T03:56:55.756Z,4.95
2023-02-03T03:59:24.065Z,4.97
2023-02-03T04:01:52.027Z,5.43
2023-02-03T04:04:19.604Z,5.65
2023-02-03T04:06:46.820Z,5.72
2023-02-03T04:09:14.067Z,7.40
2023-02-03T04:11:58.765Z,5.50
2023-02-03T04:14:27.385Z,7.78
2023-02-03T04:16:54.674Z,6.07
2023-02-03T04:19:21.918Z,6.70
2023-02-03T04:21:49.148Z,9.32
2023-02-03T04:24:16.422Z,4.75
2023-02-03T04:26:43.921Z,8.43
2023-02-03T04:29:11.323Z,5.28
2023-02-03T04:31:39.948Z,6.88
2023-02-03T04:34:07.334Z,5.00
2023-02-03T04:36:35.335Z,4.13
2023-02-03T04:39:02.558Z,5.40
2023-02-03T04:41:29.805Z,6.22
2023-02-03T04:43:57.059Z,7.93
2023-02-03T04:46:24.392Z,5.82
2023-02-03T04:48:52.968Z,5.90
2023-02-03T04:51:20.202Z,6.80
2023-02-03T04:53:47.434Z,5.25
2023-02-03T04:56:15.934Z,3.75
2023-02-03T04:58:43.175Z,7.00
2023-02-03T05:01:10.736Z,6.45
2023-02-03T05:03:38.097Z,5.30
2023-02-03T05:06:07.071Z,3.65
2023-02-03T05:08:34.324Z,5.53
2023-02-03T05:11:02.361Z,5.18
2023-02-03T05:13:30.084Z,4.47
2023-02-03T05:15:57.402Z,5.45
2023-02-03T05:18:24.646Z,4.13
2023-02-03T05:20:51.892Z,4.13
2023-02-03T05:23:20.484Z,3.92
2023-02-03T05:25:48.013Z,5.00
2023-02-03T05:28:15.368Z,4.65
2023-02-03T05:30:42.887Z,5.15
2023-02-03T05:33:10.130Z,3.78
2023-02-03T05:35:37.741Z,6.68
2023-02-03T05:38:05.013Z,6.47
2023-02-03T05:40:51.445Z,3.40
2023-02-03T05:43:20.723Z,5.55
2023-02-03T05:45:47.989Z,6.75
2023-02-03T05:48:15.232Z,5.20
2023-02-03T05:50:42.893Z,6.28
2023-02-03T05:53:10.264Z,4.43
2023-02-03T05:55:38.841Z,7.07
2023-02-03T05:58:06.144Z,6.05
2023-02-03T06:00:33.435Z,4.30
2023-02-03T06:03:03.536Z,5.35
2023-02-03T06:05:31.510Z,5.35
2023-02-03T06:07:59.004Z,5.65
2023-02-03T06:10:27.133Z,5.35
2023-02-03T06:12:55.841Z,4.20
2023-02-03T06:15:23.082Z,3.83
2023-02-03T06:17:50.519Z,4.35
2023-02-03T06:20:18.745Z,7.95
2023-02-03T06:22:46.175Z,5.28
2023-02-03T06:25:14.251Z,3.50
2023-02-03T06:27:42.125Z,7.30
2023-02-03T06:30:12.182Z,3.97
2023-02-03T06:32:39.422Z,3.67
2023-02-03T06:35:06.941Z,6.35
2023-02-03T06:37:35.534Z,5.25
2023-02-03T06:40:02.996Z,5.43
2023-02-03T06:42:30.223Z,7.90
2023-02-03T06:44:57.557Z,5.03
2023-02-03T06:47:27.841Z,6.05
2023-02-03T06:49:55.112Z,4.93
2023-02-03T06:52:22.543Z,4.43
2023-02-03T06:54:49.821Z,7.70
2023-02-03T06:57:17.056Z,7.07
2023-02-03T06:59:44.311Z,7.80
2023-02-03T07:02:12.166Z,7.93
2023-02-03T07:04:40.747Z,6.03
2023-02-03T07:07:07.977Z,4.43
2023-02-03T07:09:35.275Z,4.78
2023-02-03T07:12:03.548Z,5.63
2023-02-03T07:14:31.636Z,5.80
2023-02-03T07:16:58.884Z,7.00
2023-02-03T07:19:26.140Z,8.05
2023-02-03T07:21:54.722Z,5.28
2023-02-03T07:24:22.230Z,6.40
2023-02-03T07:26:49.944Z,7.72
2023-02-03T07:29:17.183Z,5.93
2023-02-03T07:31:44.507Z,2.97
2023-02-03T07:34:11.818Z,2.15
2023-02-03T07:36:39.061Z,3.97
2023-02-03T07:39:07.681Z,6.15
2023-02-03T07:41:35.064Z,2.80
2023-02-03T07:44:02.374Z,6.40
2023-02-03T07:46:29.849Z,3.75
2023-02-03T07:48:57.341Z,6.43
2023-02-03T07:51:24.619Z,6.45
2023-02-03T07:53:51.899Z,4.50
2023-02-03T07:56:20.488Z,4.88
2023-02-03T07:58:47.719Z,4.50
2023-02-03T08:01:15.731Z,4.60
2023-02-03T08:03:43.305Z,2.13
2023-02-03T08:06:10.923Z,5.15
2023-02-03T08:08:38.215Z,6.18
2023-02-03T08:11:05.699Z,3.20
2023-02-03T08:13:34.281Z,3.92
2023-02-03T08:16:01.696Z,3.55
2023-02-03T08:18:32.297Z,3.47
2023-02-03T08:21:00.652Z,4.60
2023-02-03T08:23:27.902Z,1.80
2023-02-03T08:25:55.372Z,4.85
2023-02-03T08:28:22.625Z,3.33
2023-02-03T08:30:51.794Z,3.70
2023-02-03T08:33:19.186Z,4.55
2023-02-03T08:35:47.440Z,4.32
2023-02-03T08:38:14.719Z,4.03
2023-02-03T08:40:42.050Z,2.67
2023-02-03T08:43:09.297Z,1.98
2023-02-03T08:45:36.701Z,3.58
2023-02-03T08:48:05.308Z,3.20
2023-02-03T08:50:32.555Z,2.25
2023-02-03T08:52:59.836Z,4.40
2023-02-03T08:55:27.133Z,2.40
2023-02-03T08:57:54.425Z,4.45
2023-02-03T09:00:22.080Z,4.07
2023-02-03T09:02:49.573Z,3.85
2023-02-03T09:05:23.041Z,5.43
2023-02-03T09:07:50.294Z,0.43
2023-02-03T09:10:17.633Z,1.80
2023-02-03T09:12:45.657Z,2.58
2023-02-03T09:15:12.963Z,2.20
2023-02-03T09:17:40.394Z,2.72
2023-02-03T09:20:08.929Z,5.65
2023-02-03T09:22:37.596Z,3.03
2023-02-03T09:25:05.096Z,2.97
2023-02-03T09:27:32.409Z,3.10
2023-02-03T09:29:59.635Z,3.30
2023-02-03T09:32:26.967Z,4.10
2023-02-03T09:34:54.206Z,4.15
2023-02-03T09:37:21.469Z,4.43
2023-02-03T09:39:50.065Z,4.88
2023-02-03T09:42:28.428Z,5.05
2023-02-03T09:45:00.200Z,5.55
2023-02-03T09:47:29.080Z,4.40
2023-02-03T09:49:58.093Z,3.92
2023-02-03T09:52:26.241Z,3.95
2023-02-03T09:54:57.807Z,2.90
2023-02-03T09:57:26.305Z,5.47
2023-02-03T09:59:54.521Z,1.77
2023-02-03T10:02:36.812Z,3.05
2023-02-03T10:05:07.560Z,3.77
2023-02-03T10:07:37.912Z,1.75
2023-02-03T10:10:11.572Z,6.60
2023-02-03T10:12:45.292Z,3.33
2023-02-03T10:15:35.585Z,3.53
2023-02-03T10:18:05.796Z,3.90
2023-02-03T10:20:36.709Z,4.97
2023-02-03T10:23:07.784Z,1.83
2023-02-03T10:25:39.397Z,5.90
2023-02-03T10:28:11.671Z,3.00
2023-02-03T10:30:45.345Z,2.35
2023-02-03T10:33:14.641Z,2.60
2023-02-03T10:35:46.559Z,5.72
2023-02-03T10:38:16.517Z,2.88
2023-02-03T10:40:45.132Z,4.10
2023-02-03T10:43:30.379Z,3.38
2023-02-03T10:46:00.529Z,3.13
2023-02-03T10:48:28.460Z,3.58
2023-02-03T10:50:56.309Z,2.78
2023-02-03T10:53:24.718Z,3.20
2023-02-03T10:56:01.128Z,3.40
2023-02-03T10:58:29.132Z,3.60
2023-02-03T11:00:57.708Z,3.40
2023-02-03T11:03:26.729Z,3.70
2023-02-03T11:06:08.956Z,5.28
2023-02-03T11:08:37.214Z,3.40
2023-02-03T11:11:06.827Z,2.28
2023-02-03T11:13:34.232Z,4.43
2023-02-03T11:16:02.350Z,2.35
2023-02-03T11:18:47.776Z,2.72
2023-02-03T11:21:17.877Z,4.65
2023-02-03T11:23:46.591Z,5.03
2023-02-03T11:26:16.115Z,2.10
2023-02-03T11:28:44.211Z,2.67
2023-02-03T11:31:18.493Z,2.72
2023-02-03T11:33:48.292Z,2.58
2023-02-03T11:36:15.657Z,2.05
2023-02-03T11:38:44.624Z,1.63
2023-02-03T11:41:18.270Z,3.03
2023-02-03T11:43:45.875Z,2.55
2023-02-03T11:46:13.670Z,1.52
2023-02-03T11:48:46.511Z,2.92
2023-02-03T11:51:19.612Z,2.90
2023-02-03T11:53:59.386Z,2.75
2023-02-03T11:56:32.333Z,2.15
2023-02-03T12:01:32.183Z,3.83
2023-02-03T12:04:06.317Z,2.20
2023-02-03T12:06:44.398Z,2.92
2023-02-03T12:09:23.780Z,2.58
2023-02-03T12:11:58.818Z,3.50
2023-02-03T12:14:35.122Z,4.22
2023-02-03T12:17:09.451Z,1.58
2023-02-03T12:19:42.074Z,3.55
2023-02-03T12:22:14.998Z,2.00
2023-02-03T12:24:45.514Z,2.75
2023-02-03T12:27:21.315Z,1.23
2023-02-03T12:29:52.248Z,2.70
2023-02-03T12:32:23.039Z,2.97
2023-02-03T12:34:53.404Z,2.33
2023-02-03T12:37:23.694Z,2.33
2023-02-03T12:39:52.925Z,2.15
2023-02-03T12:42:22.807Z,2.47
2023-02-03T12:44:53.216Z,4.43
2023-02-03T12:47:25.379Z,3.45
2023-02-03T12:49:55.061Z,2.60
2023-02-03T12:52:24.009Z,3.58
2023-02-03T12:54:55.629Z,2.38
2023-02-03T12:57:26.227Z,2.30
2023-02-03T13:00:04.031Z,3.72
2023-02-03T13:02:33.948Z,3.58
2023-02-03T13:05:03.077Z,2.38
2023-02-03T13:07:34.078Z,3.85
2023-02-03T13:10:03.621Z,2.13
2023-02-03T13:12:33.285Z,2.30
2023-02-03T13:15:04.790Z,3.60
2023-02-03T13:17:38.872Z,2.15
2023-02-03T13:20:12.278Z,2.63
2023-02-03T13:22:39.516Z,1.80
2023-02-03T13:25:08.614Z,4.28
2023-02-03T13:27:43.181Z,4.88
2023-02-03T13:30:26.797Z,4.55
2023-02-03T13:33:04.772Z,4.03
2023-02-03T13:35:36.384Z,3.72
2023-02-03T13:38:10.205Z,3.42
2023-02-03T13:40:40.793Z,4.25
2023-02-03T13:43:13.192Z,1.55
2023-02-03T13:45:42.150Z,4.32
2023-02-03T13:48:11.376Z,2.30
2023-02-03T13:50:39.615Z,3.92
2023-02-03T13:53:08.877Z,1.17
2023-02-03T13:55:37.900Z,4.43
2023-02-03T13:58:05.893Z,2.70
2023-02-03T14:00:51.830Z,3.30
2023-02-03T14:03:40.430Z,3.08
2023-02-03T14:06:11.657Z,2.95
2023-02-03T14:08:47.856Z,3.85
2023-02-03T14:11:33.761Z,1.80
2023-02-03T14:14:22.895Z,3.03
2023-02-03T14:16:54.825Z,4.65
2023-02-03T14:19:37.200Z,2.73
2023-02-03T14:22:05.763Z,3.45
2023-02-03T14:24:33.920Z,3.25
2023-02-03T14:27:03.050Z,2.63
2023-02-03T14:29:32.066Z,1.95
2023-02-03T14:32:01.520Z,3.47
2023-02-03T14:34:30.774Z,1.42
2023-02-03T14:36:59.367Z,3.47
2023-02-03T14:39:37.215Z,3.88
2023-02-03T14:42:06.296Z,3.80
2023-02-03T14:44:37.761Z,2.45
2023-02-03T14:47:10.699Z,2.25
2023-02-03T14:49:53.877Z,3.20
2023-02-03T14:52:29.203Z,3.50
2023-02-03T14:55:02.911Z,3.30
2023-02-03T14:57:38.520Z,2.05
2023-02-03T15:00:07.033Z,2.38
2023-02-03T15:02:36.274Z,2.83
2023-02-03T15:05:31.636Z,2.50
2023-02-03T15:08:01.060Z,4.18
2023-02-03T15:10:30.764Z,1.73
2023-02-03T15:12:59.024Z,2.63
2023-02-03T15:15:28.227Z,2.53
2023-02-03T15:17:57.971Z,2.50
2023-02-03T15:20:27.715Z,2.42
2023-02-03T15:22:55.016Z,2.97
2023-02-03T15:25:25.559Z,2.17
2023-02-03T15:27:53.215Z,2.58
2023-02-03T15:30:24.569Z,3.92
2023-02-03T15:33:01.097Z,3.67
2023-02-03T15:35:31.595Z,2.47
2023-02-03T15:38:02.166Z,3.90
2023-02-03T15:40:32.621Z,2.88
2023-02-03T15:43:00.882Z,3.10
2023-02-03T15:45:30.329Z,1.27
2023-02-03T15:48:00.012Z,4.55
2023-02-03T15:50:31.736Z,2.67
2023-02-03T15:53:04.769Z,3.78
2023-02-03T15:55:33.514Z,2.22
2023-02-03T15:58:01.096Z,3.20
2023-02-03T16:00:36.252Z,5.15
2023-02-03T16:03:04.740Z,3.03
2023-02-03T16:05:34.161Z,4.15
2023-02-03T16:08:16.299Z,2.70
2023-02-03T16:10:43.639Z,1.75
2023-02-03T16:13:14.340Z,3.00
2023-02-03T16:15:41.627Z,1.15
2023-02-03T16:18:16.870Z,0.75
2023-02-03T16:20:50.723Z,1.33
2023-02-03T16:23:21.809Z,2.42
2023-02-03T16:26:05.750Z,3.60
2023-02-03T16:28:50.979Z,2.28
2023-02-03T16:31:36.913Z,2.00
2023-02-03T16:34:31.984Z,2.08
2023-02-03T16:37:19.029Z,3.63
2023-02-03T16:40:03.735Z,3.00
2023-02-03T16:42:58.158Z,1.65
2023-02-03T16:45:43.003Z,1.92
2023-02-03T16:48:28.924Z,3.03
2023-02-03T16:50:59.344Z,3.10
2023-02-03T16:53:30.126Z,0.20
2023-02-03T16:55:58.304Z,3.58
2023-02-03T16:58:25.563Z,3.30
2023-02-03T17:00:53.968Z,2.92
2023-02-03T17:03:22.236Z,1.10
2023-02-03T17:05:49.815Z,4.30
2023-02-03T17:08:18.306Z,1.45
2023-02-03T17:10:47.845Z,2.13
2023-02-03T17:13:15.410Z,6.78
2023-02-03T17:15:43.208Z,1.38
2023-02-03T17:18:10.507Z,1.00
2023-02-03T17:20:38.357Z,1.15
2023-02-03T17:23:05.625Z,4.22
2023-02-03T17:25:33.554Z,1.55
2023-02-03T17:28:02.199Z,2.97
2023-02-03T17:30:33.822Z,2.60
2023-02-03T17:33:02.031Z,0.60
2023-02-03T17:35:29.854Z,3.30
2023-02-03T17:37:57.341Z,0.10
2023-02-03T17:54:14.421Z,1.42
2023-02-03T17:56:41.715Z,0.10
2023-02-03T17:59:11.167Z,1.20
2023-02-03T18:01:38.844Z,1.70
2023-02-03T18:04:08.696Z,1.85
2023-02-03T18:06:36.484Z,0.98
2023-02-03T18:09:04.363Z,0.82
2023-02-03T18:11:32.516Z,1.20
2023-02-03T18:14:00.089Z,1.80
2023-02-03T18:16:32.433Z,1.63
2023-02-03T18:19:00.783Z,1.85
2023-02-03T18:21:28.331Z,2.60
2023-02-03T18:23:59.339Z,2.28
2023-02-03T18:26:28.605Z,2.63
2023-02-03T18:28:57.549Z,1.35
2023-02-03T18:31:25.359Z,1.55
2023-02-03T18:33:53.977Z,2.13
2023-02-03T18:36:21.549Z,3.20
2023-02-03T18:38:49.614Z,1.73
2023-02-03T18:41:18.639Z,3.03
2023-02-03T18:43:48.511Z,1.00
2023-02-03T18:46:17.648Z,0.63
2023-02-03T18:48:44.999Z,4.72
2023-02-03T18:51:14.353Z,2.65
2023-02-03T18:53:42.073Z,2.55
2023-02-03T18:56:10.104Z,1.25
2023-02-03T18:58:38.101Z,3.40
2023-02-03T19:01:05.954Z,1.65
2023-02-03T19:03:34.037Z,2.63
2023-02-03T19:06:01.474Z,3.13
2023-02-03T19:08:30.063Z,2.63
2023-02-03T19:10:57.674Z,4.15
2023-02-03T19:13:24.946Z,3.58
2023-02-03T19:15:52.580Z,3.30
2023-02-03T19:18:19.889Z,2.88
2023-02-03T19:20:47.130Z,1.85
2023-02-03T19:23:14.437Z,1.60
2023-02-03T19:25:42.981Z,2.28
2023-02-03T19:28:17.457Z,2.00
2023-02-03T19:30:47.907Z,1.92
2023-02-03T19:33:16.017Z,1.88
2023-02-03T19:35:43.537Z,2.40
2023-02-03T19:38:10.797Z,2.50
2023-02-03T19:40:38.073Z,2.58
2023-02-03T19:43:06.893Z,2.55
2023-02-03T19:45:35.876Z,4.38
2023-02-03T19:48:03.100Z,1.13
2023-02-03T19:50:30.569Z,2.55
2023-02-03T19:52:58.008Z,2.40
2023-02-03T19:55:30.578Z,2.80
2023-02-03T19:57:59.863Z,3.85
2023-02-03T20:00:30.805Z,4.05
2023-02-03T20:02:58.180Z,2.20
2023-02-03T20:05:25.429Z,2.83
2023-02-03T20:07:53.480Z,2.35
2023-02-03T20:10:20.706Z,3.72
2023-02-03T20:12:47.946Z,3.13
2023-02-03T20:15:15.202Z,3.38
2023-02-03T20:17:43.848Z,4.00
2023-02-03T20:20:11.512Z,3.28
2023-02-03T20:22:38.735Z,2.35
2023-02-03T20:25:06.770Z,5.20
2023-02-03T20:27:34.059Z,5.15
2023-02-03T20:30:01.342Z,3.58
2023-02-03T20:32:28.603Z,3.00
2023-02-03T20:34:57.629Z,2.97
2023-02-03T20:37:24.969Z,5.13
2023-02-03T20:39:52.189Z,1.42
2023-02-03T20:42:19.456Z,2.72
2023-02-03T20:44:46.991Z,1.55
2023-02-03T20:47:15.184Z,3.95
2023-02-03T20:49:43.590Z,3.22
2023-02-03T20:52:13.820Z,3.10
2023-02-03T20:54:41.359Z,0.63
2023-02-03T20:57:13.791Z,2.92
2023-02-03T20:59:41.332Z,3.58
2023-02-03T21:02:18.617Z,2.72
2023-02-03T21:05:00.472Z,1.05
2023-02-03T21:07:30.732Z,2.72
2023-02-03T21:09:58.512Z,2.88
2023-02-03T21:12:25.800Z,2.85
2023-02-03T21:14:55.040Z,2.55
2023-02-03T21:17:23.180Z,2.05
2023-02-03T21:19:50.482Z,3.22
2023-02-03T21:22:19.078Z,2.58
2023-02-03T21:24:58.762Z,2.78
2023-02-03T21:27:28.453Z,1.27
2023-02-03T21:29:57.226Z,2.35
2023-02-03T21:32:25.782Z,1.30
2023-02-03T21:34:53.057Z,3.05
2023-02-03T21:37:35.724Z,1.70
2023-02-03T21:40:13.225Z,0.90
2023-02-03T21:42:43.156Z,1.88
2023-02-03T21:45:24.131Z,2.13
2023-02-03T21:47:52.508Z,3.67
2023-02-03T21:50:30.709Z,3.78
2023-02-03T21:52:58.201Z,3.55
2023-02-03T21:55:26.930Z,3.10
2023-02-03T21:57:55.091Z,5.97
2023-02-03T22:00:39.642Z,6.40
2023-02-03T22:03:08.299Z,2.30
2023-02-03T22:05:35.967Z,3.97
2023-02-03T22:08:04.998Z,3.63
2023-02-03T22:10:35.119Z,4.07
2023-02-03T22:13:02.721Z,5.68
2023-02-03T22:15:29.968Z,2.28
2023-02-03T22:17:57.494Z,5.25
2023-02-03T22:20:24.769Z,2.45
2023-02-03T22:22:53.670Z,3.65
2023-02-03T22:25:20.923Z,1.45
2023-02-03T22:27:50.797Z,0.55
2023-02-03T22:30:19.358Z,2.53
2023-02-03T22:32:46.604Z,6.88
2023-02-03T22:35:13.850Z,2.83
2023-02-03T22:37:41.072Z,1.15
2023-02-03T22:40:09.643Z,2.25
2023-02-03T22:42:36.890Z,3.78
2023-02-03T22:45:06.325Z,1.42
2023-02-03T22:47:33.674Z,4.60
2023-02-03T22:50:00.922Z,3.90
2023-02-03T22:52:28.451Z,2.15
2023-02-03T22:54:55.679Z,2.97
2023-02-03T22:57:23.002Z,3.70
2023-02-03T22:59:50.492Z,2.10
2023-02-03T23:02:19.057Z,0.77
2023-02-03T23:04:46.399Z,2.67
2023-02-03T23:07:13.888Z,2.33
2023-02-03T23:09:41.147Z,2.22
2023-02-03T23:12:09.406Z,3.95
2023-02-03T23:14:36.859Z,2.97
2023-02-03T23:17:04.138Z,1.40
2023-02-03T23:19:32.709Z,2.67
2023-02-03T23:22:00.038Z,2.55
2023-02-03T23:24:27.429Z,1.23
2023-02-03T23:26:54.640Z,5.30
2023-02-03T23:29:21.875Z,1.08
2023-02-03T23:31:49.298Z,0.73
2023-02-03T23:34:34.454Z,0.65
2023-02-03T23:37:03.098Z,3.25
2023-02-03T23:39:30.466Z,2.97
2023-02-03T23:41:58.108Z,0.52
2023-02-03T23:44:25.357Z,0.70
2023-02-03T23:46:52.613Z,1.40
2023-02-03T23:49:19.838Z,1.63
2023-02-03T23:51:47.102Z,0.90
2023-02-03T23:54:15.674Z,0.63
2023-02-03T23:56:44.630Z,1.23
2023-02-03T23:59:12.600Z,3.03
